sensor_id;sensor_type;location;lat;lon;timestamp;pressure;altitude;pressure_sealevel;temperature;humidity
70434;BME280;57876;47.792;12.960;2023-06-10T00:02:07;96399.25;;;18.52;54.08
70434;BME280;57876;47.792;12.960;2023-06-10T00:04:32;96402.31;;;18.51;54.14
70434;BME280;57876;47.792;12.960;2023-06-10T00:06:56;96401.31;;;18.55;54.08
70434;BME280;57876;47.792;12.960;2023-06-10T00:09:21;96392.28;;;18.55;54.24
70434;BME280;57876;47.792;12.960;2023-06-10T00:11:47;96388.41;;;18.56;54.24
70434;BME280;57876;47.792;12.960;2023-06-10T00:14:11;96386.91;;;18.58;54.16
70434;BME280;57876;47.792;12.960;2023-06-10T00:16:35;96390.00;;;18.57;54.06
70434;BME280;57876;47.792;12.960;2023-06-10T00:19:00;96385.31;;;18.57;54.05
70434;BME280;57876;47.792;12.960;2023-06-10T00:21:25;96385.78;;;18.59;54.11
70434;BME280;57876;47.792;12.960;2023-06-10T00:23:50;96392.38;;;18.58;54.08
70434;BME280;57876;47.792;12.960;2023-06-10T00:26:14;96392.06;;;18.60;54.18
70434;BME280;57876;47.792;12.960;2023-06-10T00:28:39;96395.59;;;18.60;54.02
70434;BME280;57876;47.792;12.960;2023-06-10T00:31:04;96387.69;;;18.59;54.04
70434;BME280;57876;47.792;12.960;2023-06-10T00:33:29;96389.31;;;18.60;54.15
70434;BME280;57876;47.792;12.960;2023-06-10T00:35:53;96399.13;;;18.61;54.02
70434;BME280;57876;47.792;12.960;2023-06-10T00:38:17;96381.88;;;18.60;54.22
70434;BME280;57876;47.792;12.960;2023-06-10T00:40:42;96393.63;;;18.61;54.08
70434;BME280;57876;47.792;12.960;2023-06-10T00:43:07;96398.31;;;18.60;54.02
70434;BME280;57876;47.792;12.960;2023-06-10T00:45:31;96401.84;;;18.61;54.14
70434;BME280;57876;47.792;12.960;2023-06-10T00:47:56;96395.59;;;18.60;54.01
70434;BME280;57876;47.792;12.960;2023-06-10T00:50:20;96396.38;;;18.61;54.05
70434;BME280;57876;47.792;12.960;2023-06-10T00:52:45;96393.19;;;18.59;54.08
70434;BME280;57876;47.792;12.960;2023-06-10T00:55:12;96382.22;;;18.59;54.03
70434;BME280;57876;47.792;12.960;2023-06-10T00:57:36;96390.09;;;18.60;54.02
70434;BME280;57876;47.792;12.960;2023-06-10T01:00:02;96391.69;;;18.61;53.96
70434;BME280;57876;47.792;12.960;2023-06-10T01:02:27;96387.03;;;18.62;54.05
70434;BME280;57876;47.792;12.960;2023-06-10T01:04:52;96387.38;;;18.60;53.77
70434;BME280;57876;47.792;12.960;2023-06-10T01:07:30;96379.38;;;18.55;54.06
70434;BME280;57876;47.792;12.960;2023-06-10T01:10:03;96391.94;;;18.56;53.99
70434;BME280;57876;47.792;12.960;2023-06-10T01:12:34;96392.38;;;18.58;54.11
70434;BME280;57876;47.792;12.960;2023-06-10T01:14:59;96392.84;;;18.60;54.13
70434;BME280;57876;47.792;12.960;2023-06-10T01:17:24;96391.59;;;18.58;54.26
70434;BME280;57876;47.792;12.960;2023-06-10T01:19:55;96402.63;;;18.61;54.26
70434;BME280;57876;47.792;12.960;2023-06-10T01:22:19;96397.16;;;18.61;54.13
70434;BME280;57876;47.792;12.960;2023-06-10T01:24:44;96390.09;;;18.60;54.03
70434;BME280;57876;47.792;12.960;2023-06-10T01:27:13;96392.84;;;18.60;54.09
70434;BME280;57876;47.792;12.960;2023-06-10T01:29:43;96387.69;;;18.59;53.99
70434;BME280;57876;47.792;12.960;2023-06-10T01:32:20;96400.34;;;18.63;53.75
70434;BME280;57876;47.792;12.960;2023-06-10T01:34:46;96402.75;;;18.65;53.98
70434;BME280;57876;47.792;12.960;2023-06-10T01:37:13;96409.03;;;18.65;54.13
70434;BME280;57876;47.792;12.960;2023-06-10T01:39:40;96396.94;;;18.66;53.98
70434;BME280;57876;47.792;12.960;2023-06-10T01:42:06;96396.13;;;18.66;53.96
70434;BME280;57876;47.792;12.960;2023-06-10T01:44:31;96398.53;;;18.67;54.08
70434;BME280;57876;47.792;12.960;2023-06-10T01:46:56;96398.09;;;18.65;54.02
70434;BME280;57876;47.792;12.960;2023-06-10T01:49:20;96405.13;;;18.66;53.98
70434;BME280;57876;47.792;12.960;2023-06-10T01:51:46;96404.44;;;18.69;53.97
70434;BME280;57876;47.792;12.960;2023-06-10T01:54:10;96404.44;;;18.69;53.96
70434;BME280;57876;47.792;12.960;2023-06-10T01:56:34;96396.22;;;18.69;54.17
70434;BME280;57876;47.792;12.960;2023-06-10T01:58:59;96393.84;;;18.68;53.96
70434;BME280;57876;47.792;12.960;2023-06-10T02:01:23;96400.56;;;18.70;53.98
70434;BME280;57876;47.792;12.960;2023-06-10T02:03:48;96405.25;;;18.70;53.95
70434;BME280;57876;47.792;12.960;2023-06-10T02:06:12;96394.31;;;18.70;53.96
70434;BME280;57876;47.792;12.960;2023-06-10T02:08:36;96380.50;;;18.66;54.09
70434;BME280;57876;47.792;12.960;2023-06-10T02:11:01;96385.63;;;18.68;53.99
70434;BME280;57876;47.792;12.960;2023-06-10T02:13:25;96390.31;;;18.67;54.12
70434;BME280;57876;47.792;12.960;2023-06-10T02:15:49;96382.53;;;18.69;54.00
70434;BME280;57876;47.792;12.960;2023-06-10T02:18:14;96377.41;;;18.68;53.70
70434;BME280;57876;47.792;12.960;2023-06-10T02:20:38;96382.53;;;18.69;54.12
70434;BME280;57876;47.792;12.960;2023-06-10T02:23:03;96384.13;;;18.70;54.06
70434;BME280;57876;47.792;12.960;2023-06-10T02:25:27;96382.09;;;18.67;54.03
70434;BME280;57876;47.792;12.960;2023-06-10T02:27:52;96387.22;;;18.69;54.05
70434;BME280;57876;47.792;12.960;2023-06-10T02:30:16;96385.28;;;18.69;54.03
70434;BME280;57876;47.792;12.960;2023-06-10T02:32:41;96388.38;;;18.68;54.19
70434;BME280;57876;47.792;12.960;2023-06-10T02:35:06;96397.38;;;18.68;53.96
70434;BME280;57876;47.792;12.960;2023-06-10T02:37:30;96397.38;;;18.68;53.94
70434;BME280;57876;47.792;12.960;2023-06-10T02:39:55;96393.41;;;18.66;54.02
70434;BME280;57876;47.792;12.960;2023-06-10T02:42:19;96395.44;;;18.69;54.13
70434;BME280;57876;47.792;12.960;2023-06-10T02:44:43;96396.59;;;18.68;53.95
70434;BME280;57876;47.792;12.960;2023-06-10T02:47:08;96395.81;;;18.67;53.95
70434;BME280;57876;47.792;12.960;2023-06-10T02:49:33;96397.03;;;18.70;53.85
70434;BME280;57876;47.792;12.960;2023-06-10T02:51:57;96396.22;;;18.69;53.87
70434;BME280;57876;47.792;12.960;2023-06-10T02:54:22;96398.41;;;18.64;54.01
70434;BME280;57876;47.792;12.960;2023-06-10T02:56:46;96408.88;;;18.74;53.91
70434;BME280;57876;47.792;12.960;2023-06-10T02:59:12;96413.28;;;18.75;53.89
70434;BME280;57876;47.792;12.960;2023-06-10T03:01:36;96405.84;;;18.76;53.89
70434;BME280;57876;47.792;12.960;2023-06-10T03:04:01;96402.63;;;18.74;53.88
70434;BME280;57876;47.792;12.960;2023-06-10T03:06:25;96407.44;;;18.77;53.99
70434;BME280;57876;47.792;12.960;2023-06-10T03:08:50;96406.63;;;18.76;53.99
70434;BME280;57876;47.792;12.960;2023-06-10T03:11:14;96414.84;;;18.76;53.78
70434;BME280;57876;47.792;12.960;2023-06-10T03:13:39;96410.97;;;18.77;53.90
70434;BME280;57876;47.792;12.960;2023-06-10T03:16:04;96418.38;;;18.77;54.00
70434;BME280;57876;47.792;12.960;2023-06-10T03:18:28;96425.47;;;18.78;53.81
70434;BME280;57876;47.792;12.960;2023-06-10T03:20:54;96414.06;;;18.76;54.06
70434;BME280;57876;47.792;12.960;2023-06-10T03:23:19;96421.13;;;18.77;54.03
70434;BME280;57876;47.792;12.960;2023-06-10T03:25:44;96426.28;;;18.78;53.86
70434;BME280;57876;47.792;12.960;2023-06-10T03:28:08;96425.03;;;18.76;53.86
70434;BME280;57876;47.792;12.960;2023-06-10T03:30:33;96430.13;;;18.77;53.96
70434;BME280;57876;47.792;12.960;2023-06-10T03:32:57;96432.09;;;18.77;54.12
70434;BME280;57876;47.792;12.960;2023-06-10T03:35:21;96441.09;;;18.77;54.05
70434;BME280;57876;47.792;12.960;2023-06-10T03:37:46;96433.25;;;18.76;53.89
70434;BME280;57876;47.792;12.960;2023-06-10T03:40:10;96432.44;;;18.75;53.97
70434;BME280;57876;47.792;12.960;2023-06-10T03:42:35;96440.31;;;18.77;53.91
70434;BME280;57876;47.792;12.960;2023-06-10T03:44:59;96440.66;;;18.75;54.04
70434;BME280;57876;47.792;12.960;2023-06-10T03:47:24;96426.81;;;18.71;53.93
70434;BME280;57876;47.792;12.960;2023-06-10T03:49:48;96437.09;;;18.75;53.97
70434;BME280;57876;47.792;12.960;2023-06-10T03:52:13;96434.69;;;18.73;53.92
70434;BME280;57876;47.792;12.960;2023-06-10T03:54:37;96439.84;;;18.75;54.02
70434;BME280;57876;47.792;12.960;2023-06-10T03:57:02;96436.66;;;18.73;54.34
70434;BME280;57876;47.792;12.960;2023-06-10T03:59:27;96436.66;;;18.73;53.86
70434;BME280;57876;47.792;12.960;2023-06-10T04:01:52;96439.03;;;18.74;53.98
70434;BME280;57876;47.792;12.960;2023-06-10T04:04:17;96442.59;;;18.75;53.98
70434;BME280;57876;47.792;12.960;2023-06-10T04:06:41;96431.84;;;18.69;54.03
70434;BME280;57876;47.792;12.960;2023-06-10T04:09:07;96438.13;;;18.70;53.94
70434;BME280;57876;47.792;12.960;2023-06-10T04:11:32;96435.72;;;18.68;53.87
70434;BME280;57876;47.792;12.960;2023-06-10T04:13:56;96434.94;;;18.68;53.92
70434;BME280;57876;47.792;12.960;2023-06-10T04:16:21;96438.94;;;18.70;53.93
70434;BME280;57876;47.792;12.960;2023-06-10T04:18:45;96418.50;;;18.68;54.04
70434;BME280;57876;47.792;12.960;2023-06-10T04:21:10;96418.84;;;18.66;53.97
70434;BME280;57876;47.792;12.960;2023-06-10T04:23:37;96431.84;;;18.69;53.89
70434;BME280;57876;47.792;12.960;2023-06-10T04:26:02;96433.44;;;18.70;53.91
70434;BME280;57876;47.792;12.960;2023-06-10T04:28:27;96431.03;;;18.69;53.93
70434;BME280;57876;47.792;12.960;2023-06-10T04:30:51;96446.00;;;18.71;54.00
70434;BME280;57876;47.792;12.960;2023-06-10T04:33:15;96445.19;;;18.71;53.93
70434;BME280;57876;47.792;12.960;2023-06-10T04:35:40;96444.75;;;18.69;53.87
70434;BME280;57876;47.792;12.960;2023-06-10T04:38:04;96447.94;;;18.71;54.04
70434;BME280;57876;47.792;12.960;2023-06-10T04:40:29;96442.47;;;18.71;54.13
70434;BME280;57876;47.792;12.960;2023-06-10T04:42:53;96451.38;;;18.68;53.84
70434;BME280;57876;47.792;12.960;2023-06-10T04:45:18;96458.34;;;18.65;53.98
70434;BME280;57876;47.792;12.960;2023-06-10T04:47:42;96469.41;;;18.69;53.92
70434;BME280;57876;47.792;12.960;2023-06-10T04:50:07;96470.19;;;18.69;53.92
70434;BME280;57876;47.792;12.960;2023-06-10T04:52:32;96470.88;;;18.66;54.10
70434;BME280;57876;47.792;12.960;2023-06-10T04:54:58;96468.16;;;18.66;54.07
70434;BME280;57876;47.792;12.960;2023-06-10T04:57:22;96481.16;;;18.69;53.85
70434;BME280;57876;47.792;12.960;2023-06-10T04:59:47;96474.09;;;18.68;53.98
70434;BME280;57876;47.792;12.960;2023-06-10T05:02:11;96476.03;;;18.68;53.91
70434;BME280;57876;47.792;12.960;2023-06-10T05:04:36;96482.66;;;18.67;53.91
70434;BME280;57876;47.792;12.960;2023-06-10T05:07:00;96477.53;;;18.65;54.12
70434;BME280;57876;47.792;12.960;2023-06-10T05:09:24;96485.75;;;18.65;53.90
70434;BME280;57876;47.792;12.960;2023-06-10T05:11:50;96476.72;;;18.65;53.99
70434;BME280;57876;47.792;12.960;2023-06-10T05:14:14;96481.84;;;18.66;54.00
70434;BME280;57876;47.792;12.960;2023-06-10T05:16:43;96483.00;;;18.65;54.08
70434;BME280;57876;47.792;12.960;2023-06-10T05:19:07;96474.31;;;18.63;54.01
70434;BME280;57876;47.792;12.960;2023-06-10T05:21:31;96484.16;;;18.64;53.89
70434;BME280;57876;47.792;12.960;2023-06-10T05:23:56;96483.34;;;18.64;54.03
70434;BME280;57876;47.792;12.960;2023-06-10T05:26:20;96480.94;;;18.62;53.85
70434;BME280;57876;47.792;12.960;2023-06-10T05:28:44;96480.94;;;18.62;54.03
70434;BME280;57876;47.792;12.960;2023-06-10T05:31:09;96479.34;;;18.61;54.12
70434;BME280;57876;47.792;12.960;2023-06-10T05:33:33;96479.34;;;18.61;53.96
70434;BME280;57876;47.792;12.960;2023-06-10T05:35:58;96473.06;;;18.61;53.92
70434;BME280;57876;47.792;12.960;2023-06-10T05:38:22;96476.59;;;18.61;54.03
70434;BME280;57876;47.792;12.960;2023-06-10T05:40:47;96473.06;;;18.61;54.10
70434;BME280;57876;47.792;12.960;2023-06-10T05:43:11;96479.34;;;18.61;54.02
70434;BME280;57876;47.792;12.960;2023-06-10T05:45:36;96473.19;;;18.64;53.99
70434;BME280;57876;47.792;12.960;2023-06-10T05:48:01;96477.19;;;18.67;54.13
70434;BME280;57876;47.792;12.960;2023-06-10T05:50:25;96470.09;;;18.66;54.13
70434;BME280;57876;47.792;12.960;2023-06-10T05:52:49;96464.72;;;18.69;53.89
70434;BME280;57876;47.792;12.960;2023-06-10T05:55:14;96467.44;;;18.69;54.02
70434;BME280;57876;47.792;12.960;2023-06-10T05:57:41;96454.44;;;18.66;53.92
70434;BME280;57876;47.792;12.960;2023-06-10T06:00:06;96468.38;;;18.74;53.97
70434;BME280;57876;47.792;12.960;2023-06-10T06:02:30;96460.38;;;18.68;54.16
70434;BME280;57876;47.792;12.960;2023-06-10T06:04:55;96444.19;;;18.63;54.09
70434;BME280;57876;47.792;12.960;2023-06-10T06:07:19;96470.44;;;18.77;53.83
70434;BME280;57876;47.792;12.960;2023-06-10T06:09:44;96462.44;;;18.71;53.95
70434;BME280;57876;47.792;12.960;2023-06-10T06:12:09;96466.13;;;18.76;53.80
70434;BME280;57876;47.792;12.960;2023-06-10T06:14:37;96444.19;;;18.63;54.02
70434;BME280;57876;47.792;12.960;2023-06-10T06:17:02;96467.69;;;18.77;53.91
70434;BME280;57876;47.792;12.960;2023-06-10T06:19:26;96468.88;;;18.76;53.98
70434;BME280;57876;47.792;12.960;2023-06-10T06:21:51;96470.44;;;18.77;53.91
70434;BME280;57876;47.792;12.960;2023-06-10T06:24:16;96481.06;;;18.78;53.75
70434;BME280;57876;47.792;12.960;2023-06-10T06:26:40;96461.75;;;18.75;53.90
70434;BME280;57876;47.792;12.960;2023-06-10T06:29:04;96475.13;;;18.76;53.54
70434;BME280;57876;47.792;12.960;2023-06-10T06:31:29;96463.84;;;18.78;53.95
70434;BME280;57876;47.792;12.960;2023-06-10T06:33:54;96466.59;;;18.78;53.82
70434;BME280;57876;47.792;12.960;2023-06-10T06:36:18;96463.03;;;18.77;53.65
70434;BME280;57876;47.792;12.960;2023-06-10T06:38:43;96465.88;;;18.81;53.79
70434;BME280;57876;47.792;12.960;2023-06-10T06:41:07;96455.63;;;18.78;53.72
70434;BME280;57876;47.792;12.960;2023-06-10T06:43:32;96466.59;;;18.78;53.78
70434;BME280;57876;47.792;12.960;2023-06-10T06:45:57;96466.31;;;18.83;53.81
70434;BME280;57876;47.792;12.960;2023-06-10T06:48:22;96458.09;;;18.83;53.83
70434;BME280;57876;47.792;12.960;2023-06-10T06:50:46;96451.41;;;18.80;53.69
70434;BME280;57876;47.792;12.960;2023-06-10T06:53:10;96462.00;;;18.82;53.92
70434;BME280;57876;47.792;12.960;2023-06-10T06:55:35;96459.63;;;18.80;53.71
70434;BME280;57876;47.792;12.960;2023-06-10T06:57:59;96464.28;;;18.80;53.80
70434;BME280;57876;47.792;12.960;2023-06-10T07:00:26;96465.75;;;18.77;53.74
70434;BME280;57876;47.792;12.960;2023-06-10T07:02:51;96463.38;;;18.76;53.40
70434;BME280;57876;47.792;12.960;2023-06-10T07:05:15;96471.69;;;18.79;53.69
70434;BME280;57876;47.792;12.960;2023-06-10T07:07:39;96470.81;;;18.75;53.63
70434;BME280;57876;47.792;12.960;2023-06-10T07:10:04;96472.06;;;18.78;53.89
70434;BME280;57876;47.792;12.960;2023-06-10T07:12:29;96475.00;;;18.73;53.91
70434;BME280;57876;47.792;12.960;2023-06-10T07:14:53;96476.59;;;18.74;53.72
70434;BME280;57876;47.792;12.960;2023-06-10T07:17:18;96475.59;;;18.78;53.62
70434;BME280;57876;47.792;12.960;2023-06-10T07:19:42;96470.00;;;18.75;53.72
70434;BME280;57876;47.792;12.960;2023-06-10T07:22:06;96480.28;;;18.78;53.70
70434;BME280;57876;47.792;12.960;2023-06-10T07:24:31;96480.13;;;18.74;53.63
70434;BME280;57876;47.792;12.960;2023-06-10T07:26:55;96485.31;;;18.76;53.67
70434;BME280;57876;47.792;12.960;2023-06-10T07:29:19;96477.53;;;18.78;53.68
70434;BME280;57876;47.792;12.960;2023-06-10T07:31:44;96464.97;;;18.77;53.80
70434;BME280;57876;47.792;12.960;2023-06-10T07:34:09;96476.38;;;18.79;53.58
70434;BME280;57876;47.792;12.960;2023-06-10T07:36:33;96475.94;;;18.77;53.70
70434;BME280;57876;47.792;12.960;2023-06-10T07:38:57;96470.00;;;18.75;53.64
70434;BME280;57876;47.792;12.960;2023-06-10T07:41:25;96468.06;;;18.75;53.57
70434;BME280;57876;47.792;12.960;2023-06-10T07:43:49;96470.00;;;18.75;53.77
70434;BME280;57876;47.792;12.960;2023-06-10T07:46:18;96457.66;;;18.68;53.46
70434;BME280;57876;47.792;12.960;2023-06-10T07:48:42;96473.84;;;18.74;53.56
70434;BME280;57876;47.792;12.960;2023-06-10T07:51:07;96475.13;;;18.76;53.61
70434;BME280;57876;47.792;12.960;2023-06-10T07:53:31;96476.38;;;18.79;53.76
70434;BME280;57876;47.792;12.960;2023-06-10T07:55:55;96470.00;;;18.75;53.51
70434;BME280;57876;47.792;12.960;2023-06-10T07:58:20;96480.28;;;18.78;53.55
70434;BME280;57876;47.792;12.960;2023-06-10T08:00:46;96480.72;;;18.80;53.58
70434;BME280;57876;47.792;12.960;2023-06-10T08:03:11;96470.13;;;18.78;53.51
70434;BME280;57876;47.792;12.960;2023-06-10T08:05:35;96468.69;;;18.72;53.66
70434;BME280;57876;47.792;12.960;2023-06-10T08:07:59;96475.47;;;18.75;53.65
70434;BME280;57876;47.792;12.960;2023-06-10T08:10:24;96484.94;;;18.77;53.46
70434;BME280;57876;47.792;12.960;2023-06-10T08:12:48;96479.91;;;18.79;53.64
70434;BME280;57876;47.792;12.960;2023-06-10T08:15:13;96474.81;;;18.78;53.58
70434;BME280;57876;47.792;12.960;2023-06-10T08:17:40;96471.91;;;18.74;53.62
70434;BME280;57876;47.792;12.960;2023-06-10T08:20:06;96481.88;;;18.79;53.54
70434;BME280;57876;47.792;12.960;2023-06-10T08:22:30;96477.19;;;18.79;53.47
70434;BME280;57876;47.792;12.960;2023-06-10T08:24:54;96472.06;;;18.78;53.52
70434;BME280;57876;47.792;12.960;2023-06-10T08:27:20;96477.53;;;18.78;53.43
70434;BME280;57876;47.792;12.960;2023-06-10T08:29:44;96479.66;;;18.72;53.62
70434;BME280;57876;47.792;12.960;2023-06-10T08:32:09;96472.72;;;18.75;53.46
70434;BME280;57876;47.792;12.960;2023-06-10T08:34:34;96478.88;;;18.71;53.58
70434;BME280;57876;47.792;12.960;2023-06-10T08:37:03;96461.97;;;18.69;53.62
70434;BME280;57876;47.792;12.960;2023-06-10T08:39:27;96466.31;;;18.70;53.57
70434;BME280;57876;47.792;12.960;2023-06-10T08:45:20;96467.81;;;18.68;53.40
70434;BME280;57876;47.792;12.960;2023-06-10T08:47:49;96460.75;;;18.67;53.50
70434;BME280;57876;47.792;12.960;2023-06-10T08:50:16;96469.75;;;18.67;53.57
70434;BME280;57876;47.792;12.960;2023-06-10T08:52:43;96460.63;;;18.63;53.40
70434;BME280;57876;47.792;12.960;2023-06-10T08:55:14;96446.69;;;18.56;53.66
70434;BME280;57876;47.792;12.960;2023-06-10T08:57:41;96461.31;;;18.60;53.58
70434;BME280;57876;47.792;12.960;2023-06-10T09:00:06;96466.09;;;18.63;53.59
70434;BME280;57876;47.792;12.960;2023-06-10T09:02:31;96462.91;;;18.61;53.68
70434;BME280;57876;47.792;12.960;2023-06-10T09:04:59;96455.84;;;18.60;53.66
70434;BME280;57876;47.792;12.960;2023-06-10T09:07:24;96457.00;;;18.59;53.61
70434;BME280;57876;47.792;12.960;2023-06-10T09:09:49;96455.38;;;18.58;53.55
70434;BME280;57876;47.792;12.960;2023-06-10T09:12:14;96451.06;;;18.57;53.66
70434;BME280;57876;47.792;12.960;2023-06-10T09:14:39;96457.44;;;18.61;53.47
70434;BME280;57876;47.792;12.960;2023-06-10T09:17:03;96464.06;;;18.60;53.96
70434;BME280;57876;47.792;12.960;2023-06-10T09:19:29;96457.00;;;18.59;53.74
70434;BME280;57876;47.792;12.960;2023-06-10T09:21:54;96455.38;;;18.58;53.57
70434;BME280;57876;47.792;12.960;2023-06-10T09:24:18;96448.78;;;18.59;53.74
70434;BME280;57876;47.792;12.960;2023-06-10T09:26:43;96452.63;;;18.58;53.58
70434;BME280;57876;47.792;12.960;2023-06-10T09:29:08;96450.59;;;18.55;53.64
70434;BME280;57876;47.792;12.960;2023-06-10T09:31:36;96452.63;;;18.58;53.62
70434;BME280;57876;47.792;12.960;2023-06-10T09:34:08;96448.22;;;18.54;53.57
70434;BME280;57876;47.792;12.960;2023-06-10T09:36:34;96447.84;;;18.55;53.62
70434;BME280;57876;47.792;12.960;2023-06-10T09:38:59;96457.66;;;18.56;53.75
70434;BME280;57876;47.792;12.960;2023-06-10T09:41:43;96445.47;;;18.54;53.60
70434;BME280;57876;47.792;12.960;2023-06-10T09:44:15;96447.75;;;18.52;53.66
70434;BME280;57876;47.792;12.960;2023-06-10T09:46:40;96448.88;;;18.51;53.42
70434;BME280;57876;47.792;12.960;2023-06-10T09:49:04;96452.53;;;18.55;53.42
70434;BME280;57876;47.792;12.960;2023-06-10T09:51:29;96450.13;;;18.53;53.99
70434;BME280;57876;47.792;12.960;2023-06-10T09:53:54;96450.38;;;18.48;53.80
70434;BME280;57876;47.792;12.960;2023-06-10T09:56:19;96446.59;;;18.53;53.68
70434;BME280;57876;47.792;12.960;2023-06-10T09:58:44;96440.34;;;18.52;53.71
70434;BME280;57876;47.792;12.960;2023-06-10T10:01:11;96441.91;;;18.53;53.78
70434;BME280;57876;47.792;12.960;2023-06-10T10:03:50;96444.66;;;18.53;53.69
70434;BME280;57876;47.792;12.960;2023-06-10T10:06:16;96440.34;;;18.52;53.67
70434;BME280;57876;47.792;12.960;2023-06-10T10:08:40;96432.03;;;18.48;53.78
70434;BME280;57876;47.792;12.960;2023-06-10T10:11:05;96439.41;;;18.48;53.72
70434;BME280;57876;47.792;12.960;2023-06-10T10:13:34;96428.38;;;18.44;53.82
70434;BME280;57876;47.792;12.960;2023-06-10T10:16:02;96428.03;;;18.46;53.63
70434;BME280;57876;47.792;12.960;2023-06-10T10:18:29;96440.34;;;18.52;53.60
70434;BME280;57876;47.792;12.960;2023-06-10T10:20:55;96437.13;;;18.50;53.71
70434;BME280;57876;47.792;12.960;2023-06-10T10:23:31;96432.81;;;18.49;53.82
70434;BME280;57876;47.792;12.960;2023-06-10T10:26:00;96429.63;;;18.47;53.71
70434;BME280;57876;47.792;12.960;2023-06-10T10:28:35;96433.16;;;18.47;53.83
70434;BME280;57876;47.792;12.960;2023-06-10T10:31:09;96428.03;;;18.46;53.64
70434;BME280;57876;47.792;12.960;2023-06-10T10:33:42;96431.19;;;18.48;53.78
70434;BME280;57876;47.792;12.960;2023-06-10T10:36:10;96429.63;;;18.47;53.78
70434;BME280;57876;47.792;12.960;2023-06-10T10:38:35;96420.94;;;18.45;53.67
70434;BME280;57876;47.792;12.960;2023-06-10T10:41:00;96421.84;;;18.49;53.69
70434;BME280;57876;47.792;12.960;2023-06-10T10:43:26;96420.59;;;18.46;53.64
70434;BME280;57876;47.792;12.960;2023-06-10T10:46:01;96418.66;;;18.47;53.57
70434;BME280;57876;47.792;12.960;2023-06-10T10:48:26;96420.25;;;18.48;53.65
70434;BME280;57876;47.792;12.960;2023-06-10T10:50:57;96426.41;;;18.45;53.73
70434;BME280;57876;47.792;12.960;2023-06-10T10:53:22;96429.28;;;18.48;53.79
70434;BME280;57876;47.792;12.960;2023-06-10T10:56:07;96420.16;;;18.44;53.72
70434;BME280;57876;47.792;12.960;2023-06-10T10:58:32;96424.13;;;18.47;53.79
70434;BME280;57876;47.792;12.960;2023-06-10T11:00:56;96432.03;;;18.48;53.83
70434;BME280;57876;47.792;12.960;2023-06-10T11:03:21;96421.72;;;18.45;53.60
70434;BME280;57876;47.792;12.960;2023-06-10T11:05:47;96427.34;;;18.49;53.85
70434;BME280;57876;47.792;12.960;2023-06-10T11:08:13;96426.53;;;18.48;53.65
70434;BME280;57876;47.792;12.960;2023-06-10T11:10:51;96418.56;;;18.43;53.65
70434;BME280;57876;47.792;12.960;2023-06-10T11:13:20;96424.13;;;18.47;53.67
70434;BME280;57876;47.792;12.960;2023-06-10T11:15:47;96428.47;;;18.48;53.72
70434;BME280;57876;47.792;12.960;2023-06-10T11:18:22;96430.41;;;18.47;53.74
70434;BME280;57876;47.792;12.960;2023-06-10T11:31:21;96421.41;;;18.47;53.70
70434;BME280;57876;47.792;12.960;2023-06-10T11:33:54;96415.00;;;18.43;53.74
70434;BME280;57876;47.792;12.960;2023-06-10T11:36:19;96410.78;;;18.45;53.68
70434;BME280;57876;47.792;12.960;2023-06-10T11:38:43;96415.47;;;18.45;53.76
70434;BME280;57876;47.792;12.960;2023-06-10T11:41:08;96418.66;;;18.47;53.79
70434;BME280;57876;47.792;12.960;2023-06-10T11:43:33;96394.72;;;18.44;53.68
70434;BME280;57876;47.792;12.960;2023-06-10T11:45:58;96398.25;;;18.44;53.77
70434;BME280;57876;47.792;12.960;2023-06-10T11:48:23;96401.78;;;18.45;53.69
70434;BME280;57876;47.792;12.960;2023-06-10T11:50:48;96410.44;;;18.47;53.76
70434;BME280;57876;47.792;12.960;2023-06-10T11:53:12;96399.72;;;18.42;53.45
70434;BME280;57876;47.792;12.960;2023-06-10T11:55:48;96409.88;;;18.41;53.76
70434;BME280;57876;47.792;12.960;2023-06-10T11:58:22;96417.75;;;18.43;53.65
70434;BME280;57876;47.792;12.960;2023-06-10T12:00:47;96414.66;;;18.44;53.74
70434;BME280;57876;47.792;12.960;2023-06-10T12:03:13;96417.75;;;18.43;53.72
70434;BME280;57876;47.792;12.960;2023-06-10T12:05:37;96415.69;;;18.40;53.71
70434;BME280;57876;47.792;12.960;2023-06-10T12:08:11;96429.16;;;18.45;53.68
70434;BME280;57876;47.792;12.960;2023-06-10T12:10:41;96412.06;;;18.36;53.50
70434;BME280;57876;47.792;12.960;2023-06-10T12:13:06;96411.38;;;18.39;53.55
70434;BME280;57876;47.792;12.960;2023-06-10T12:15:30;96419.34;;;18.44;53.69
70434;BME280;57876;47.792;12.960;2023-06-10T12:17:56;96414.66;;;18.44;53.77
70434;BME280;57876;47.792;12.960;2023-06-10T12:20:26;96414.56;;;18.41;53.85
70434;BME280;57876;47.792;12.960;2023-06-10T12:22:51;96417.75;;;18.43;53.72
70434;BME280;57876;47.792;12.960;2023-06-10T12:25:16;96414.22;;;18.42;53.78
70434;BME280;57876;47.792;12.960;2023-06-10T12:27:50;96409.09;;;18.41;53.62
70434;BME280;57876;47.792;12.960;2023-06-10T12:30:19;96419.34;;;18.44;53.66
70434;BME280;57876;47.792;12.960;2023-06-10T12:32:45;96404.31;;;18.38;53.67
70434;BME280;57876;47.792;12.960;2023-06-10T12:35:11;96407.25;;;18.45;53.67
70434;BME280;57876;47.792;12.960;2023-06-10T12:37:36;96416.63;;;18.44;53.67
70434;BME280;57876;47.792;12.960;2023-06-10T12:40:01;96412.25;;;18.43;53.66
70434;BME280;57876;47.792;12.960;2023-06-10T12:42:33;96398.16;;;18.41;53.71
70434;BME280;57876;47.792;12.960;2023-06-10T12:45:01;96411.94;;;18.44;53.67
70434;BME280;57876;47.792;12.960;2023-06-10T12:47:38;96399.72;;;18.42;53.55
70434;BME280;57876;47.792;12.960;2023-06-10T12:50:04;96407.84;;;18.38;53.70
70434;BME280;57876;47.792;12.960;2023-06-10T12:52:29;96410.69;;;18.42;53.72
70434;BME280;57876;47.792;12.960;2023-06-10T12:54:54;96407.59;;;18.43;53.68
70434;BME280;57876;47.792;12.960;2023-06-10T12:57:19;96408.31;;;18.40;53.78